2001 MISSING (2001141N14068)


On this page: IBTrACS data - Map and Plots - Positions - Intensities - Original source data

Summary

Start May 21
End May 29
Basin NI
LMI 115 kt
Sources jtwc_io
newdelhi
In WMO? Yes
Previous storm 2001 CIMARON (WP)
Previous in basin 2000 MISSING (NI)
Concurrent storms 2001 MISSING (NI)
2001 ADOLPH (EP)
Next in basin Missing
Next storm 2001 ADOLPH (EP)

top of page IBTrACS Data: File Access

top of page HURSAT Data: File Access

Image of storm

top of page Plots:

Map of storm track will not appear if FTP is down
Time series of cyclone Maximum Sustained Wind will not appear if FTP is down
Time series of cyclone Minimum Central Pressure will not appear if FTP is down

top of page Track Data:Position

jtwc_io newdelhi
Date Lat Lon Lat Lon
2001-05-21 06:00:00 13.7 68.1
2001-05-21 12:00:00 13.7 69.0 13.5 69.0
2001-05-21 18:00:00 13.7 69.9 13.5 70.0
2001-05-22 00:00:00 13.9 70.6 14.0 71.0
2001-05-22 06:00:00 14.1 71.2 14.0 71.5
2001-05-22 12:00:00 14.5 71.6 14.0 71.5
2001-05-22 18:00:00 14.9 71.7 14.0 71.5
2001-05-23 00:00:00 15.4 71.4 14.5 71.5
2001-05-23 06:00:00 15.7 70.9 15.5 71.0
2001-05-23 12:00:00 15.9 70.4 16.0 70.5
2001-05-23 18:00:00 16.4 70.2 16.0 70.5
2001-05-24 00:00:00 16.7 69.8 16.0 69.5
2001-05-24 06:00:00 16.8 69.0 17.0 69.0
2001-05-24 12:00:00 16.8 68.2 17.0 68.5
2001-05-24 18:00:00 16.9 68.1 17.0 68.5
2001-05-25 00:00:00 17.0 68.0 17.0 67.5
2001-05-25 06:00:00 17.2 67.8 17.0 68.0
2001-05-25 12:00:00 17.2 67.6 17.2 67.5
2001-05-25 18:00:00 17.1 67.7 17.0 68.0
2001-05-26 00:00:00 17.0 67.9 17.5 67.5
2001-05-26 06:00:00 17.2 67.8 17.5 67.5
2001-05-26 12:00:00 17.6 67.8 17.5 67.5
2001-05-26 18:00:00 18.0 67.7 17.5 67.5
2001-05-27 00:00:00 18.3 67.6 18.0 67.5
2001-05-27 06:00:00 18.6 67.6 18.0 67.5
jtwc_io newdelhi
2001-05-27 12:00:00 19.0 67.6 19.0 67.5
2001-05-27 18:00:00 19.5 67.7 19.0 68.0
2001-05-28 00:00:00 19.9 67.7 19.5 68.0
2001-05-28 06:00:00 20.2 68.2 20.0 68.0
2001-05-28 12:00:00 21.0 68.4 21.0 68.5
2001-05-28 18:00:00 21.8 67.9 21.5 69.0
2001-05-29 00:00:00 22.3 67.7 21.5 69.0
2001-05-29 06:00:00 22.8 68.2
2001-05-29 12:00:00 23.4 68.8

top of pageTrack Data:Intensity

jtwc_io newdelhi
Date Wind Pres Wind Pres
2001-05-21 06:00:00 25. 1002.
2001-05-21 12:00:00 30. 1002. 25. 1000.
2001-05-21 18:00:00 35. 997. 25. 1000.
2001-05-22 00:00:00 45. 991. 30. 998.
2001-05-22 06:00:00 60. 980. 45. 996.
2001-05-22 12:00:00 65. 976. 45. 992.
2001-05-22 18:00:00 70. 972. 55. 988.
2001-05-23 00:00:00 75. 967. 65. 980.
2001-05-23 06:00:00 80. 967. 90. 964.
2001-05-23 12:00:00 85. 958. 90. 960.
2001-05-23 18:00:00 95. 954. 90. 962.
2001-05-24 00:00:00 100. 949. 90. 960.
2001-05-24 06:00:00 110. 927. 102. 946.
2001-05-24 12:00:00 110. 927. 115. 932.
2001-05-24 18:00:00 100. 927. 115. 932.
2001-05-25 00:00:00 90. 944. 115. 932.
2001-05-25 06:00:00 90. 944. 90. 960.
2001-05-25 12:00:00 80. 958. 77. 968.
2001-05-25 18:00:00 75. 958. 77. 970.
2001-05-26 00:00:00 65. 972. 65. 976.
2001-05-26 06:00:00 60. 980. 55. 984.
2001-05-26 12:00:00 55. 984. 55. 982.
2001-05-26 18:00:00 50. 987. 55. 982.
2001-05-27 00:00:00 50. 987. 55. 984.
2001-05-27 06:00:00 45. 991. 45. 986.
jtwc_io newdelhi
2001-05-27 12:00:00 45. 991. 45. 988.
2001-05-27 18:00:00 40. 994. 35. 994.
2001-05-28 00:00:00 40. 994. 35. 994.
2001-05-28 06:00:00 30. 1000. 35. 996.
2001-05-28 12:00:00 30. 1000. 30. 996.
2001-05-28 18:00:00 25. 997. 25. 998.
2001-05-29 00:00:00 25. 1002. 25. 998.
2001-05-29 06:00:00 20. 1004.
2001-05-29 12:00:00 55. 997.

top of page Links to source data

Source Source file Format
jtwc_io bio012001.txt ATCF
newdelhi New_Delhi_Tropical_Cyclone_Track_and_Intensity_Current.csv:Line=1660 New Delhi CSV file (from Excel file)